createdAt,value
2023-02-14T00:00:10.717Z,13.91
2023-02-14T00:02:38.790Z,14.52
2023-02-14T00:05:07.253Z,14.41
2023-02-14T00:07:36.443Z,14.66
2023-02-14T00:10:04.345Z,14.39
2023-02-14T00:12:32.201Z,14.30
2023-02-14T00:15:31.876Z,14.49
2023-02-14T00:18:00.513Z,14.64
2023-02-14T00:20:29.151Z,14.33
2023-02-14T00:22:59.828Z,14.88
2023-02-14T00:25:27.702Z,14.80
2023-02-14T00:27:55.687Z,14.40
2023-02-14T00:30:23.883Z,14.10
2023-02-14T00:32:51.730Z,13.99
2023-02-14T00:35:19.867Z,13.78
2023-02-14T00:37:47.889Z,14.23
2023-02-14T00:40:17.242Z,14.41
2023-02-14T00:42:45.098Z,14.55
2023-02-14T00:45:12.979Z,14.43
2023-02-14T00:47:40.995Z,14.48
2023-02-14T00:50:09.746Z,14.50
2023-02-14T00:52:37.602Z,14.38
2023-02-14T00:55:05.778Z,14.29
2023-02-14T00:57:35.179Z,14.09
2023-02-14T01:00:07.155Z,14.10
2023-02-14T01:02:35.082Z,14.75
2023-02-14T01:05:03.112Z,14.43
2023-02-14T01:07:30.966Z,15.02
2023-02-14T01:09:58.852Z,13.47
2023-02-14T01:12:26.750Z,14.06
2023-02-14T01:14:56.694Z,14.26
2023-02-14T01:17:24.534Z,14.38
2023-02-14T01:19:53.165Z,14.86
2023-02-14T01:22:21.164Z,14.47
2023-02-14T01:24:49.210Z,14.22
2023-02-14T01:27:17.103Z,14.63
2023-02-14T01:29:44.980Z,14.55
2023-02-14T01:32:14.406Z,14.50
2023-02-14T01:34:42.425Z,14.54
2023-02-14T01:37:10.341Z,14.17
2023-02-14T01:39:38.227Z,13.59
2023-02-14T01:42:06.662Z,13.78
2023-02-14T01:44:56.624Z,13.50
2023-02-14T01:47:28.159Z,13.76
2023-02-14T01:50:00.478Z,14.04
2023-02-14T01:52:31.849Z,14.15
2023-02-14T01:55:05.780Z,14.21
2023-02-14T01:57:37.865Z,14.43
2023-02-14T02:00:25.297Z,14.47
2023-02-14T02:02:54.872Z,14.57
2023-02-14T02:05:23.835Z,14.66
2023-02-14T02:07:52.453Z,14.09
2023-02-14T02:10:21.417Z,14.43
2023-02-14T02:12:52.594Z,14.70
2023-02-14T02:15:20.860Z,14.46
2023-02-14T02:17:57.332Z,14.37
2023-02-14T02:20:54.910Z,14.43
2023-02-14T02:23:50.218Z,14.25
2023-02-14T02:27:02.855Z,14.21
2023-02-14T02:30:05.386Z,14.27
2023-02-14T02:32:59.954Z,14.48
2023-02-14T02:35:45.081Z,13.86
2023-02-14T02:38:22.496Z,14.29
2023-02-14T02:40:57.870Z,13.82
2023-02-14T02:43:38.107Z,14.78
2023-02-14T02:46:26.270Z,14.45
2023-02-14T02:48:58.221Z,13.57
2023-02-14T02:51:50.890Z,13.72
2023-02-14T02:54:21.798Z,13.24
2023-02-14T02:56:53.481Z,14.36
2023-02-14T02:59:24.355Z,14.64
2023-02-14T03:01:58.590Z,14.08
2023-02-14T03:04:44.941Z,14.33
2023-02-14T03:07:32.018Z,14.07
2023-02-14T03:10:01.415Z,13.40
2023-02-14T03:13:21.398Z,13.70
2023-02-14T03:15:55.559Z,14.67
2023-02-14T03:18:41.178Z,14.59
2023-02-14T03:21:18.522Z,14.39
2023-02-14T03:23:55.642Z,14.77
2023-02-14T03:26:28.449Z,14.41
2023-02-14T03:29:01.278Z,14.56
2023-02-14T03:31:32.987Z,14.32
2023-02-14T03:34:10.355Z,14.58
2023-02-14T03:36:42.263Z,14.60
2023-02-14T03:39:15.331Z,14.78
2023-02-14T03:41:47.602Z,14.47
2023-02-14T03:44:19.597Z,14.39
2023-02-14T03:46:51.196Z,14.46
2023-02-14T03:49:21.251Z,14.67
2023-02-14T03:51:50.417Z,14.77
2023-02-14T03:54:21.917Z,14.73
2023-02-14T03:56:51.629Z,14.32
2023-02-14T03:59:22.042Z,14.01
2023-02-14T04:01:55.936Z,14.25
2023-02-14T04:04:26.350Z,14.46
2023-02-14T04:06:54.214Z,14.18
2023-02-14T04:09:23.388Z,14.54
2023-02-14T04:11:51.386Z,14.70
2023-02-14T04:14:19.265Z,14.39
2023-02-14T04:17:04.659Z,14.39
2023-02-14T04:19:32.547Z,14.28
2023-02-14T04:22:00.466Z,14.36
2023-02-14T04:24:29.847Z,14.35
2023-02-14T04:27:11.096Z,14.79
2023-02-14T04:29:39.830Z,14.53
2023-02-14T04:32:08.878Z,14.54
2023-02-14T04:34:37.474Z,14.38
2023-02-14T04:37:05.489Z,14.42
2023-02-14T04:39:35.452Z,14.45
2023-02-14T04:42:03.580Z,14.67
2023-02-14T04:44:33.937Z,14.04
2023-02-14T04:47:02.406Z,14.03
2023-02-14T04:49:30.355Z,14.14
2023-02-14T04:51:58.415Z,14.37
2023-02-14T04:54:26.624Z,14.28
2023-02-14T04:56:55.832Z,13.69
2023-02-14T04:59:25.060Z,13.56
2023-02-14T05:01:53.289Z,14.07
2023-02-14T05:04:21.258Z,14.21
2023-02-14T05:06:49.267Z,14.26
2023-02-14T05:09:17.156Z,14.11
2023-02-14T05:11:44.961Z,13.82
2023-02-14T05:14:14.883Z,14.11
2023-02-14T05:16:42.850Z,14.06
2023-02-14T05:19:10.798Z,14.31
2023-02-14T05:21:38.657Z,14.38
2023-02-14T05:24:06.970Z,14.29
2023-02-14T05:26:34.801Z,14.28
2023-02-14T05:29:02.772Z,14.11
2023-02-14T05:31:32.132Z,13.97
2023-02-14T05:34:00.088Z,14.13
2023-02-14T05:36:27.992Z,13.21
2023-02-14T05:38:55.869Z,13.57
2023-02-14T05:41:23.758Z,13.61
2023-02-14T05:43:51.695Z,13.93
2023-02-14T05:46:19.655Z,13.72
2023-02-14T05:48:48.996Z,14.07
2023-02-14T05:51:16.842Z,14.02
2023-02-14T05:53:44.718Z,13.88
2023-02-14T05:56:12.671Z,13.95
2023-02-14T05:58:40.548Z,13.60
2023-02-14T06:01:08.409Z,13.86
2023-02-14T06:03:36.288Z,14.28
2023-02-14T06:06:05.862Z,14.35
2023-02-14T06:08:33.769Z,14.08
2023-02-14T06:11:01.862Z,13.69
2023-02-14T06:13:29.807Z,13.57
2023-02-14T06:15:57.700Z,13.49
2023-02-14T06:18:27.986Z,14.05
2023-02-14T06:20:56.248Z,14.11
2023-02-14T06:23:26.055Z,13.83
2023-02-14T06:25:53.931Z,14.03
2023-02-14T06:28:21.814Z,13.86
2023-02-14T06:30:49.769Z,13.22
2023-02-14T06:33:17.777Z,13.29
2023-02-14T06:35:45.603Z,13.10
2023-02-14T06:38:13.461Z,13.55
2023-02-14T06:40:42.642Z,13.99
2023-02-14T06:43:10.452Z,13.62
2023-02-14T06:45:38.272Z,13.64
2023-02-14T06:48:07.487Z,13.86
2023-02-14T06:50:37.049Z,14.04
2023-02-14T06:53:06.155Z,13.88
2023-02-14T06:55:34.063Z,13.58
2023-02-14T06:58:03.280Z,12.10
2023-02-14T07:00:34.179Z,13.87
2023-02-14T07:03:02.151Z,14.07
2023-02-14T07:05:30.061Z,14.13
2023-02-14T07:07:57.881Z,14.21
2023-02-14T07:10:25.826Z,13.95
2023-02-14T07:12:53.834Z,12.39
2023-02-14T07:15:23.176Z,13.13
2023-02-14T07:17:51.127Z,13.74
2023-02-14T07:20:19.462Z,14.26
2023-02-14T07:22:47.515Z,14.32
2023-02-14T07:25:15.582Z,14.13
2023-02-14T07:27:43.595Z,14.18
2023-02-14T07:30:12.550Z,14.45
2023-02-14T07:32:42.353Z,14.36
2023-02-14T07:35:10.623Z,14.08
2023-02-14T07:37:38.618Z,14.40
2023-02-14T07:40:14.308Z,14.05
2023-02-14T07:42:43.273Z,14.60
2023-02-14T07:45:27.119Z,14.44
2023-02-14T07:47:58.994Z,13.95
2023-02-14T07:50:26.867Z,14.64
2023-02-14T07:52:54.684Z,13.75
2023-02-14T07:55:25.027Z,14.23
2023-02-14T07:57:53.926Z,14.71
2023-02-14T08:00:22.778Z,14.77
2023-02-14T08:02:50.644Z,14.93
2023-02-14T08:05:20.153Z,14.81
2023-02-14T08:07:48.069Z,14.50
2023-02-14T08:10:16.116Z,13.29
2023-02-14T08:13:02.194Z,13.94
2023-02-14T08:15:49.391Z,14.06
2023-02-14T08:18:18.624Z,14.62
2023-02-14T08:20:49.854Z,13.84
2023-02-14T08:23:18.398Z,14.23
2023-02-14T08:25:46.718Z,15.09
2023-02-14T08:28:14.988Z,15.49
2023-02-14T08:30:43.178Z,15.50
2023-02-14T08:33:11.161Z,14.58
2023-02-14T08:35:39.547Z,15.38
2023-02-14T08:38:09.214Z,15.73
2023-02-14T08:40:37.475Z,15.45
2023-02-14T08:43:05.584Z,15.82
2023-02-14T08:45:33.483Z,15.15
2023-02-14T08:48:03.036Z,15.41
2023-02-14T08:50:30.958Z,14.17
2023-02-14T08:52:58.854Z,15.44
2023-02-14T08:55:28.612Z,15.22
2023-02-14T08:57:57.863Z,15.72
2023-02-14T09:00:25.864Z,15.88
2023-02-14T09:02:54.001Z,15.41
2023-02-14T09:05:23.289Z,15.11
2023-02-14T09:07:51.388Z,15.68
2023-02-14T09:10:19.790Z,15.12
2023-02-14T09:12:49.040Z,15.21
2023-02-14T09:15:17.057Z,14.08
2023-02-14T09:17:45.111Z,15.30
2023-02-14T09:20:14.909Z,15.63
2023-02-14T09:22:43.515Z,15.84
2023-02-14T09:25:11.790Z,15.36
2023-02-14T09:27:40.086Z,15.59
2023-02-14T09:30:10.894Z,15.16
2023-02-14T09:32:38.777Z,14.46
2023-02-14T09:35:07.484Z,15.41
2023-02-14T09:37:52.619Z,15.46
2023-02-14T09:40:21.088Z,15.27
2023-02-14T09:42:54.704Z,15.56
2023-02-14T09:45:27.047Z,16.00
2023-02-14T09:47:58.617Z,14.16
2023-02-14T09:50:29.862Z,15.48
2023-02-14T09:53:00.162Z,15.82
2023-02-14T09:55:32.165Z,15.60
2023-02-14T09:58:08.158Z,15.75
2023-02-14T10:00:39.642Z,15.26
2023-02-14T10:03:19.376Z,15.51
2023-02-14T10:05:50.319Z,14.74
2023-02-14T10:08:30.579Z,14.62
2023-02-14T10:11:03.903Z,15.51
2023-02-14T10:13:36.277Z,14.79
2023-02-14T10:16:10.856Z,14.79
2023-02-14T10:18:42.118Z,14.29
2023-02-14T10:21:15.590Z,15.22
2023-02-14T10:23:47.014Z,15.52
2023-02-14T10:26:19.025Z,16.36
2023-02-14T10:28:49.144Z,15.64
2023-02-14T10:31:22.447Z,16.25
2023-02-14T10:33:57.665Z,14.72
2023-02-14T10:36:40.242Z,14.21
2023-02-14T10:39:18.101Z,15.27
2023-02-14T10:41:50.697Z,15.32
2023-02-14T10:44:31.684Z,16.14
2023-02-14T10:47:06.014Z,16.16
2023-02-14T10:49:41.630Z,16.33
2023-02-14T10:52:17.941Z,16.17
2023-02-14T10:54:47.510Z,16.52
2023-02-14T10:57:17.258Z,15.81
2023-02-14T10:59:51.554Z,16.08
2023-02-14T11:02:24.890Z,16.12
2023-02-14T11:04:53.540Z,16.69
2023-02-14T11:07:23.174Z,15.68
2023-02-14T11:09:51.076Z,15.25
2023-02-14T11:12:39.712Z,16.57
2023-02-14T11:15:22.240Z,16.87
2023-02-14T11:17:51.999Z,16.34
2023-02-14T11:20:26.638Z,16.42
2023-02-14T11:22:54.703Z,16.76
2023-02-14T11:25:24.778Z,16.21
2023-02-14T11:27:57.657Z,15.86
2023-02-14T11:30:29.422Z,15.86
2023-02-14T11:32:58.859Z,15.42
2023-02-14T11:35:34.334Z,16.00
2023-02-14T11:38:04.005Z,16.35
2023-02-14T11:40:33.696Z,14.81
2023-02-14T11:43:18.583Z,13.87
2023-02-14T11:45:48.843Z,14.59
2023-02-14T11:48:36.520Z,14.72
2023-02-14T11:51:09.136Z,15.06
2023-02-14T11:53:44.803Z,15.88
2023-02-14T11:56:13.311Z,14.82
2023-02-14T11:58:46.199Z,13.99
2023-02-14T12:01:24.114Z,15.30
2023-02-14T12:03:54.090Z,15.49
2023-02-14T12:06:25.128Z,14.38
2023-02-14T12:08:53.221Z,14.80
2023-02-14T12:11:22.905Z,15.42
2023-02-14T12:13:54.846Z,15.71
2023-02-14T12:16:27.472Z,15.43
2023-02-14T12:19:01.067Z,15.16
2023-02-14T12:21:44.064Z,15.22
2023-02-14T12:24:20.165Z,15.48
2023-02-14T12:26:51.130Z,14.73
2023-02-14T12:29:22.138Z,14.40
2023-02-14T12:31:50.962Z,15.65
2023-02-14T12:34:22.789Z,13.92
2023-02-14T12:37:08.891Z,15.51
2023-02-14T12:39:39.262Z,14.71
2023-02-14T12:42:17.390Z,15.48
2023-02-14T12:44:53.129Z,14.22
2023-02-14T12:47:23.725Z,15.10
2023-02-14T12:50:11.045Z,15.65
2023-02-14T12:52:49.306Z,13.05
2023-02-14T12:55:30.857Z,14.36
2023-02-14T12:58:02.776Z,14.57
2023-02-14T13:00:37.386Z,13.86
2023-02-14T13:03:28.922Z,13.47
2023-02-14T13:06:04.195Z,14.08
2023-02-14T13:08:46.335Z,15.13
2023-02-14T13:11:22.661Z,15.20
2023-02-14T13:13:55.947Z,14.89
2023-02-14T13:16:28.283Z,14.66
2023-02-14T13:19:01.285Z,14.32
2023-02-14T13:21:34.215Z,15.27
2023-02-14T13:24:16.552Z,13.54
2023-02-14T13:26:46.302Z,14.95
2023-02-14T13:29:16.450Z,15.21
2023-02-14T13:31:44.483Z,14.85
2023-02-14T13:34:21.212Z,13.92
2023-02-14T13:36:50.809Z,12.88
2023-02-14T13:39:26.425Z,13.31
2023-02-14T13:41:54.276Z,14.13
2023-02-14T13:44:43.230Z,15.23
2023-02-14T13:47:17.995Z,14.28
2023-02-14T13:49:51.027Z,13.45
2023-02-14T13:52:41.778Z,14.05
2023-02-14T13:55:14.623Z,15.68
2023-02-14T13:57:42.561Z,15.50
2023-02-14T14:00:46.749Z,15.53
2023-02-14T14:03:16.568Z,14.92
2023-02-14T14:06:03.656Z,14.99
2023-02-14T14:08:44.779Z,15.04
2023-02-14T14:11:35.036Z,14.80
2023-02-14T14:14:04.285Z,14.76
2023-02-14T14:16:35.006Z,14.75
2023-02-14T14:19:04.806Z,14.99
2023-02-14T14:21:33.622Z,14.77
2023-02-14T14:24:16.258Z,14.46
2023-02-14T14:26:46.838Z,13.87
2023-02-14T14:29:19.597Z,12.21
2023-02-14T14:31:48.036Z,13.58
2023-02-14T14:34:18.863Z,14.42
2023-02-14T14:36:46.948Z,13.91
2023-02-14T14:39:26.850Z,13.85
2023-02-14T14:41:54.788Z,13.96
2023-02-14T14:44:22.904Z,15.00
2023-02-14T14:46:50.838Z,14.91
2023-02-14T14:49:18.791Z,15.21
2023-02-14T14:51:46.759Z,15.25
2023-02-14T14:54:18.539Z,15.08
2023-02-14T14:56:51.119Z,14.38
2023-02-14T14:59:26.866Z,13.31
2023-02-14T15:01:55.307Z,13.43
2023-02-14T15:04:27.426Z,14.24
2023-02-14T15:06:56.332Z,14.47
2023-02-14T15:09:32.052Z,14.79
2023-02-14T15:12:18.313Z,14.94
2023-02-14T15:14:50.386Z,14.90
2023-02-14T15:17:21.197Z,13.50
2023-02-14T15:19:51.551Z,13.54
2023-02-14T15:22:21.539Z,13.31
2023-02-14T15:24:51.873Z,14.21
2023-02-14T15:27:21.659Z,14.05
2023-02-14T15:29:57.911Z,13.52
2023-02-14T15:32:26.345Z,14.04
2023-02-14T15:34:55.530Z,14.57
2023-02-14T15:37:24.303Z,14.13
2023-02-14T15:39:55.892Z,14.69
2023-02-14T15:42:26.798Z,15.06
2023-02-14T15:45:17.196Z,14.36
2023-02-14T15:47:47.085Z,14.86
2023-02-14T15:50:16.798Z,14.81
2023-02-14T15:52:45.149Z,14.68
2023-02-14T15:55:17.412Z,14.54
2023-02-14T15:57:48.121Z,14.73
2023-02-14T16:00:19.108Z,14.38
2023-02-14T16:02:49.151Z,14.49
2023-02-14T16:05:20.254Z,13.95
2023-02-14T16:07:58.875Z,14.53
2023-02-14T16:10:28.693Z,14.72
2023-02-14T16:12:59.066Z,14.39
2023-02-14T16:15:28.109Z,13.96
2023-02-14T16:17:56.108Z,14.63
2023-02-14T16:20:29.231Z,14.72
2023-02-14T16:23:15.278Z,13.52
2023-02-14T16:25:44.538Z,14.35
2023-02-14T16:28:12.485Z,13.86
2023-02-14T16:30:41.152Z,13.08
2023-02-14T16:33:14.691Z,13.25
2023-02-14T16:35:42.526Z,13.23
2023-02-14T16:38:16.021Z,13.71
2023-02-14T16:40:47.349Z,13.23
2023-02-14T16:43:15.826Z,13.38
2023-02-14T16:45:43.860Z,14.09
2023-02-14T16:48:11.767Z,13.89
2023-02-14T16:50:40.883Z,14.15
2023-02-14T16:53:14.896Z,13.56
2023-02-14T16:55:42.846Z,13.72
2023-02-14T16:58:12.200Z,14.08
2023-02-14T17:00:40.177Z,13.31
2023-02-14T17:03:08.161Z,12.21
2023-02-14T17:05:36.756Z,13.01
2023-02-14T17:08:05.776Z,13.17
2023-02-14T17:10:34.569Z,13.12
2023-02-14T17:13:04.023Z,12.41
2023-02-14T17:15:33.752Z,12.47
2023-02-14T17:18:04.938Z,13.18
2023-02-14T17:20:32.743Z,10.90
2023-02-14T17:23:00.705Z,11.05
2023-02-14T17:25:28.695Z,12.21
2023-02-14T17:27:57.150Z,12.90
2023-02-14T17:30:25.157Z,13.36
2023-02-14T17:32:54.543Z,12.60
2023-02-14T17:35:22.526Z,11.25
2023-02-14T17:37:50.490Z,12.35
2023-02-14T17:40:18.442Z,13.06
2023-02-14T17:42:46.645Z,13.87
2023-02-14T17:45:15.278Z,14.06
2023-02-14T17:47:45.108Z,13.02
2023-02-14T17:50:14.687Z,13.02
2023-02-14T17:52:42.722Z,12.67
2023-02-14T17:55:10.803Z,13.41
2023-02-14T17:57:40.896Z,12.40
2023-02-14T18:00:11.736Z,12.27
2023-02-14T18:02:42.693Z,12.15
2023-02-14T18:05:11.482Z,12.73
2023-02-14T18:07:40.889Z,11.56
2023-02-14T18:10:09.215Z,12.79
2023-02-14T18:12:37.613Z,13.17
2023-02-14T18:15:05.977Z,14.47
2023-02-14T18:17:33.816Z,14.08
2023-02-14T18:20:01.733Z,13.64
2023-02-14T18:22:29.608Z,13.92
2023-02-14T18:25:02.288Z,12.20
2023-02-14T18:27:30.156Z,12.09
2023-02-14T18:29:58.031Z,12.56
2023-02-14T18:32:26.000Z,12.02
2023-02-14T18:34:54.072Z,11.76
2023-02-14T18:37:22.155Z,14.53
2023-02-14T18:39:50.009Z,13.95
2023-02-14T18:42:19.320Z,13.78
2023-02-14T18:44:47.172Z,13.59
2023-02-14T18:47:15.039Z,12.46
2023-02-14T18:49:42.945Z,13.47
2023-02-14T18:52:10.798Z,14.73
2023-02-14T18:54:38.804Z,14.41
2023-02-14T18:57:06.668Z,15.25
2023-02-14T18:59:35.895Z,14.32
2023-02-14T19:02:03.764Z,13.29
2023-02-14T19:04:32.172Z,12.69
2023-02-14T19:07:00.024Z,13.41
2023-02-14T19:09:29.451Z,13.35
2023-02-14T19:11:59.964Z,13.38
2023-02-14T19:14:27.898Z,12.33
2023-02-14T19:16:57.140Z,12.27
2023-02-14T19:19:25.768Z,11.60
2023-02-14T19:21:53.725Z,12.69
2023-02-14T19:24:24.177Z,12.55
2023-02-14T19:26:52.063Z,12.01
2023-02-14T19:29:21.813Z,11.73
2023-02-14T19:31:53.048Z,12.19
2023-02-14T19:34:25.307Z,13.61
2023-02-14T19:36:54.758Z,14.62
2023-02-14T19:39:24.389Z,13.96
2023-02-14T19:41:52.477Z,13.47
2023-02-14T19:44:20.326Z,13.48
2023-02-14T19:46:49.011Z,14.04
2023-02-14T19:49:18.971Z,13.81
2023-02-14T19:51:49.197Z,13.34
2023-02-14T19:54:17.120Z,13.58
2023-02-14T19:56:46.560Z,13.33
2023-02-14T19:59:19.650Z,12.85
2023-02-14T20:01:49.252Z,12.79
2023-02-14T20:04:18.823Z,12.64
2023-02-14T20:06:48.421Z,12.35
2023-02-14T20:09:16.845Z,12.92
2023-02-14T20:11:50.068Z,13.43
2023-02-14T20:14:18.927Z,13.63
2023-02-14T20:16:47.850Z,13.06
2023-02-14T20:19:18.315Z,12.50
2023-02-14T20:21:48.942Z,11.77
2023-02-14T20:24:18.375Z,12.38
2023-02-14T20:26:47.363Z,12.64
2023-02-14T20:29:16.137Z,11.49
2023-02-14T20:31:46.487Z,11.76
2023-02-14T20:34:14.843Z,11.70
2023-02-14T20:36:43.532Z,13.19
2023-02-14T20:39:14.284Z,11.71
2023-02-14T20:41:43.674Z,11.26
2023-02-14T20:44:12.442Z,11.68
2023-02-14T20:46:41.191Z,11.44
2023-02-14T20:49:11.895Z,11.44
2023-02-14T20:51:40.695Z,11.17
2023-02-14T20:54:08.765Z,12.25
2023-02-14T20:56:40.098Z,13.15
2023-02-14T20:59:08.563Z,12.94
2023-02-14T21:01:36.909Z,13.35
2023-02-14T21:04:05.202Z,12.59
2023-02-14T21:06:35.640Z,12.59
2023-02-14T21:09:03.929Z,13.19
2023-02-14T21:11:31.812Z,12.96
2023-02-14T21:14:02.251Z,12.15
2023-02-14T21:16:30.696Z,11.95
2023-02-14T21:19:00.137Z,12.99
2023-02-14T21:21:32.364Z,12.50
2023-02-14T21:24:01.425Z,12.48
2023-02-14T21:26:29.943Z,12.89
2023-02-14T21:28:58.075Z,12.38
2023-02-14T21:31:27.506Z,13.16
2023-02-14T21:33:57.751Z,12.86
2023-02-14T21:36:26.780Z,11.75
2023-02-14T21:38:57.961Z,12.65
2023-02-14T21:41:27.663Z,12.97
2023-02-14T21:43:56.326Z,12.49
2023-02-14T21:46:31.142Z,11.90
2023-02-14T21:49:19.114Z,11.44
2023-02-14T21:51:47.550Z,12.72
2023-02-14T21:54:15.874Z,11.85
2023-02-14T21:56:44.131Z,11.64
2023-02-14T21:59:12.196Z,11.69
2023-02-14T22:01:41.399Z,11.99
2023-02-14T22:04:12.849Z,12.01
2023-02-14T22:06:42.155Z,11.69
2023-02-14T22:09:12.252Z,12.71
2023-02-14T22:11:40.535Z,12.59
2023-02-14T22:14:08.533Z,12.66
2023-02-14T22:16:36.852Z,12.30
2023-02-14T22:19:05.267Z,11.77
2023-02-14T22:21:34.669Z,12.18
2023-02-14T22:24:02.826Z,12.24
2023-02-14T22:26:33.679Z,12.06
2023-02-14T22:29:03.152Z,12.36
2023-02-14T22:31:34.319Z,12.21
2023-02-14T22:34:02.356Z,12.31
2023-02-14T22:36:30.283Z,11.94
2023-02-14T22:38:59.512Z,12.21
2023-02-14T22:41:27.462Z,12.55
2023-02-14T22:43:55.453Z,12.15
2023-02-14T22:46:25.070Z,12.65
2023-02-14T22:48:53.604Z,12.71
2023-02-14T22:51:23.152Z,12.46
2023-02-14T22:53:52.199Z,12.43
2023-02-14T22:56:22.967Z,11.81
2023-02-14T22:58:54.584Z,11.93
2023-02-14T23:01:23.567Z,12.30
2023-02-14T23:03:54.775Z,12.29
2023-02-14T23:06:23.291Z,12.61
2023-02-14T23:08:51.347Z,12.28
2023-02-14T23:11:23.334Z,11.75
2023-02-14T23:14:10.652Z,11.50
2023-02-14T23:16:56.167Z,11.64
2023-02-14T23:19:43.123Z,11.94
2023-02-14T23:22:13.059Z,11.41
2023-02-14T23:24:41.294Z,11.40
2023-02-14T23:27:10.615Z,11.49
2023-02-14T23:29:38.639Z,11.74
2023-02-14T23:32:07.677Z,11.82
2023-02-14T23:34:37.523Z,11.55
2023-02-14T23:37:05.782Z,11.56
2023-02-14T23:39:35.778Z,11.49
2023-02-14T23:42:03.768Z,11.45
2023-02-14T23:44:33.668Z,11.34
2023-02-14T23:47:03.117Z,11.24
2023-02-14T23:49:31.944Z,11.12
2023-02-14T23:51:59.850Z,11.27
2023-02-14T23:54:27.767Z,11.19
2023-02-14T23:56:57.424Z,10.94
2023-02-14T23:59:25.821Z,10.98
